createdAt,value
2022-10-15T00:00:41.923Z,95.17
2022-10-15T00:02:04.965Z,95.11
2022-10-15T00:03:06.761Z,95.10
2022-10-15T00:04:09.311Z,95.05
2022-10-15T00:05:10.895Z,95.00
2022-10-15T00:06:15.145Z,95.22
2022-10-15T00:07:16.673Z,95.04
2022-10-15T00:08:19.151Z,95.12
2022-10-15T00:09:22.069Z,94.82
2022-10-15T00:10:24.943Z,94.74
2022-10-15T00:11:28.392Z,94.75
2022-10-15T00:12:30.917Z,94.62
2022-10-15T00:13:33.273Z,94.64
2022-10-15T00:14:35.774Z,94.81
2022-10-15T00:15:37.791Z,94.61
2022-10-15T00:16:40.348Z,94.64
2022-10-15T00:17:42.385Z,94.48
2022-10-15T00:18:45.412Z,94.72
2022-10-15T00:19:47.131Z,94.54
2022-10-15T00:20:49.630Z,94.55
2022-10-15T00:21:51.198Z,94.41
2022-10-15T00:22:53.786Z,94.56
2022-10-15T00:23:56.596Z,94.45
2022-10-15T00:25:00.501Z,94.51
2022-10-15T00:26:06.568Z,94.46
2022-10-15T00:27:09.403Z,94.58
2022-10-15T00:28:10.899Z,94.40
2022-10-15T00:29:13.832Z,94.44
2022-10-15T00:30:15.490Z,94.60
2022-10-15T00:31:20.765Z,94.32
2022-10-15T00:32:22.558Z,94.29
2022-10-15T00:33:25.338Z,94.52
2022-10-15T00:34:26.851Z,94.37
2022-10-15T00:35:29.424Z,94.29
2022-10-15T00:36:33.580Z,94.19
2022-10-15T00:37:37.310Z,94.49
2022-10-15T00:38:39.341Z,94.12
2022-10-15T00:39:41.817Z,94.48
2022-10-15T00:40:44.662Z,94.41
2022-10-15T00:41:47.224Z,94.42
2022-10-15T00:42:48.780Z,94.23
2022-10-15T00:43:53.809Z,94.42
2022-10-15T00:44:57.245Z,94.34
2022-10-15T00:45:59.715Z,94.31
2022-10-15T00:47:06.716Z,94.41
2022-10-15T00:48:10.412Z,94.33
2022-10-15T00:49:17.829Z,94.61
2022-10-15T00:50:22.703Z,94.57
2022-10-15T00:51:29.416Z,94.47
2022-10-15T00:52:40.358Z,94.58
2022-10-15T00:53:41.937Z,94.46
2022-10-15T00:54:48.803Z,94.35
2022-10-15T00:55:52.104Z,94.24
2022-10-15T00:56:56.342Z,94.40
2022-10-15T00:58:01.025Z,94.23
2022-10-15T00:59:05.929Z,94.43
2022-10-15T01:00:10.962Z,94.08
2022-10-15T01:01:13.590Z,94.37
2022-10-15T01:02:17.355Z,94.27
2022-10-15T01:03:19.845Z,94.30
2022-10-15T01:04:23.526Z,94.30
2022-10-15T01:05:26.260Z,94.02
2022-10-15T01:06:28.438Z,94.10
2022-10-15T01:07:30.983Z,93.89
2022-10-15T01:08:33.327Z,93.88
2022-10-15T01:09:36.228Z,94.00
2022-10-15T01:10:47.453Z,93.95
2022-10-15T01:11:53.032Z,93.84
2022-10-15T01:13:03.098Z,93.85
2022-10-15T01:14:19.487Z,94.09
2022-10-15T01:15:26.114Z,93.73
2022-10-15T01:16:36.949Z,93.78
2022-10-15T01:17:44.908Z,93.96
2022-10-15T01:18:53.308Z,94.05
2022-10-15T01:20:20.489Z,93.83
2022-10-15T01:21:30.659Z,93.98
2022-10-15T01:22:50.624Z,93.88
2022-10-15T01:24:22.080Z,93.81
2022-10-15T01:25:34.084Z,93.82
2022-10-15T01:27:14.216Z,93.77
2022-10-15T01:28:25.206Z,93.90
2022-10-15T01:29:43.842Z,93.71
2022-10-15T01:30:50.999Z,93.86
2022-10-15T01:31:59.634Z,93.88
2022-10-15T01:33:15.837Z,93.90
2022-10-15T01:34:25.092Z,93.81
2022-10-15T01:35:35.931Z,93.84
2022-10-15T01:36:45.645Z,93.92
2022-10-15T01:37:55.616Z,94.07
2022-10-15T01:39:02.035Z,93.88
2022-10-15T01:40:10.938Z,93.90
2022-10-15T01:41:19.956Z,93.96
2022-10-15T01:42:28.582Z,93.79
2022-10-15T01:43:36.317Z,93.89
2022-10-15T01:44:42.910Z,94.02
2022-10-15T01:45:50.180Z,94.01
2022-10-15T01:46:58.969Z,94.03
2022-10-15T01:48:06.528Z,93.87
2022-10-15T01:49:10.177Z,94.24
2022-10-15T01:50:15.963Z,94.13
2022-10-15T01:51:18.944Z,94.25
2022-10-15T01:52:26.716Z,94.07
2022-10-15T01:53:29.520Z,94.22
2022-10-15T01:54:32.430Z,93.82
2022-10-15T01:55:36.749Z,94.00
2022-10-15T01:56:40.349Z,94.09
2022-10-15T01:57:44.653Z,93.91
2022-10-15T01:58:50.032Z,93.92
2022-10-15T01:59:52.511Z,94.24
2022-10-15T02:00:58.103Z,94.16
2022-10-15T02:01:59.695Z,94.17
2022-10-15T02:03:03.079Z,94.22
2022-10-15T02:04:18.787Z,94.29
2022-10-15T02:05:27.587Z,94.18
2022-10-15T02:06:35.421Z,94.18
2022-10-15T02:07:47.102Z,94.13
2022-10-15T02:08:59.220Z,94.10
2022-10-15T02:10:09.045Z,94.17
2022-10-15T02:11:14.367Z,94.19
2022-10-15T02:12:32.137Z,94.43
2022-10-15T02:13:51.461Z,94.56
2022-10-15T02:15:01.314Z,94.53
2022-10-15T02:16:12.859Z,94.51
2022-10-15T02:17:19.425Z,94.36
2022-10-15T02:18:28.898Z,94.35
2022-10-15T02:19:37.147Z,94.66
2022-10-15T02:20:45.358Z,94.80
2022-10-15T02:21:52.869Z,94.50
2022-10-15T02:23:00.584Z,94.65
2022-10-15T02:24:09.852Z,94.50
2022-10-15T02:25:16.832Z,94.76
2022-10-15T02:26:21.023Z,94.80
2022-10-15T02:27:24.200Z,94.57
2022-10-15T02:28:29.743Z,94.84
2022-10-15T02:29:34.873Z,94.67
2022-10-15T02:30:40.293Z,94.88
2022-10-15T02:31:46.253Z,94.77
2022-10-15T02:32:51.938Z,94.73
2022-10-15T02:33:58.901Z,94.81
2022-10-15T02:35:01.719Z,94.61
2022-10-15T02:36:04.755Z,94.53
2022-10-15T02:37:07.939Z,94.75
2022-10-15T02:38:16.131Z,94.67
2022-10-15T02:39:21.838Z,94.64
2022-10-15T02:40:28.811Z,94.73
2022-10-15T02:41:30.555Z,94.62
2022-10-15T02:42:33.341Z,94.65
2022-10-15T02:43:36.494Z,94.87
2022-10-15T02:44:39.092Z,94.75
2022-10-15T02:45:40.961Z,94.86
2022-10-15T02:46:44.853Z,94.85
2022-10-15T02:47:46.396Z,94.82
2022-10-15T02:48:48.881Z,94.78
2022-10-15T02:49:50.388Z,94.88
2022-10-15T02:50:52.935Z,94.96
2022-10-15T02:51:54.486Z,94.72
2022-10-15T02:52:56.994Z,94.70
2022-10-15T02:53:58.565Z,94.93
2022-10-15T02:55:01.127Z,94.65
2022-10-15T02:56:02.691Z,94.73
2022-10-15T02:57:05.343Z,94.94
2022-10-15T02:58:06.891Z,94.79
2022-10-15T02:59:09.434Z,94.97
2022-10-15T03:00:11.897Z,94.76
2022-10-15T03:01:16.202Z,94.97
2022-10-15T03:02:19.422Z,94.80
2022-10-15T03:03:22.184Z,94.76
2022-10-15T03:04:23.845Z,94.93
2022-10-15T03:06:33.206Z,94.97
2022-10-15T03:07:35.777Z,94.89
2022-10-15T03:08:38.337Z,94.68
2022-10-15T03:09:40.874Z,94.88
2022-10-15T03:10:42.384Z,94.80
2022-10-15T03:11:44.861Z,94.74
2022-10-15T03:12:46.452Z,94.72
2022-10-15T03:13:49.002Z,94.91
2022-10-15T03:14:50.578Z,94.56
2022-10-15T03:15:53.071Z,94.75
2022-10-15T03:16:54.602Z,94.66
2022-10-15T03:17:58.471Z,95.06
2022-10-15T03:19:00.148Z,94.77
2022-10-15T03:20:02.649Z,94.95
2022-10-15T03:21:04.491Z,94.99
2022-10-15T03:22:06.962Z,94.80
2022-10-15T03:23:08.495Z,94.90
2022-10-15T03:24:10.944Z,94.93
2022-10-15T03:25:12.727Z,94.72
2022-10-15T03:26:15.231Z,94.68
2022-10-15T03:27:16.785Z,94.79
2022-10-15T03:28:19.903Z,94.87
2022-10-15T03:29:21.504Z,94.83
2022-10-15T03:30:23.999Z,94.78
2022-10-15T03:31:25.523Z,95.15
2022-10-15T03:32:28.037Z,95.00
2022-10-15T03:33:30.941Z,94.83
2022-10-15T03:34:33.438Z,94.82
2022-10-15T03:35:35.245Z,94.91
2022-10-15T03:36:37.757Z,95.03
2022-10-15T03:37:39.305Z,94.77
2022-10-15T03:38:41.780Z,94.95
2022-10-15T03:39:43.329Z,94.91
2022-10-15T03:40:46.790Z,95.13
2022-10-15T03:41:48.293Z,95.09
2022-10-15T03:42:51.579Z,95.02
2022-10-15T03:43:53.100Z,94.78
2022-10-15T03:44:55.576Z,94.84
2022-10-15T03:46:02.007Z,94.61
2022-10-15T03:47:04.570Z,95.08
2022-10-15T03:48:06.534Z,94.71
2022-10-15T03:49:10.530Z,94.75
2022-10-15T03:50:13.098Z,94.93
2022-10-15T03:51:18.196Z,94.72
2022-10-15T03:52:24.541Z,94.92
2022-10-15T03:53:27.157Z,94.91
2022-10-15T03:54:28.745Z,94.90
2022-10-15T03:55:31.313Z,94.59
2022-10-15T03:56:32.831Z,94.85
2022-10-15T03:57:35.303Z,94.84
2022-10-15T03:58:36.967Z,94.81
2022-10-15T03:59:40.325Z,94.77
2022-10-15T04:00:42.561Z,94.60
2022-10-15T04:01:45.447Z,94.85
2022-10-15T04:02:47.553Z,94.82
2022-10-15T04:03:53.182Z,94.90
2022-10-15T04:04:56.959Z,94.85
2022-10-15T04:05:59.919Z,94.86
2022-10-15T04:07:05.216Z,94.65
2022-10-15T04:08:06.869Z,94.71
2022-10-15T04:09:12.012Z,94.76
2022-10-15T04:10:13.635Z,94.63
2022-10-15T04:11:16.099Z,94.59
2022-10-15T04:12:18.024Z,94.76
2022-10-15T04:13:20.553Z,94.84
2022-10-15T04:14:22.064Z,94.66
2022-10-15T04:15:24.643Z,94.64
2022-10-15T04:16:26.171Z,94.64
2022-10-15T04:17:28.655Z,94.32
2022-10-15T04:18:30.198Z,94.58
2022-10-15T04:19:32.757Z,94.53
2022-10-15T04:20:35.650Z,94.51
2022-10-15T04:21:38.137Z,94.52
2022-10-15T04:22:39.666Z,94.49
2022-10-15T04:23:42.569Z,94.35
2022-10-15T04:24:44.124Z,94.34
2022-10-15T04:25:47.090Z,94.13
2022-10-15T04:26:48.624Z,94.21
2022-10-15T04:27:51.135Z,94.35
2022-10-15T04:28:52.677Z,94.36
2022-10-15T04:29:55.181Z,94.17
2022-10-15T04:30:57.897Z,94.12
2022-10-15T04:32:00.524Z,94.08
2022-10-15T04:33:02.063Z,94.27
2022-10-15T04:34:04.942Z,93.86
2022-10-15T04:35:07.027Z,93.93
2022-10-15T04:36:14.254Z,94.07
2022-10-15T04:37:15.930Z,94.02
2022-10-15T04:38:18.410Z,93.92
2022-10-15T04:39:21.341Z,94.16
2022-10-15T04:40:22.989Z,93.86
2022-10-15T04:41:26.184Z,93.86
2022-10-15T04:42:29.069Z,93.92
2022-10-15T04:43:31.828Z,94.01
2022-10-15T04:44:34.379Z,93.93
2022-10-15T04:45:35.886Z,93.89
2022-10-15T04:46:38.414Z,93.58
2022-10-15T04:47:39.931Z,93.80
2022-10-15T04:48:43.422Z,93.68
2022-10-15T04:49:45.193Z,93.62
2022-10-15T04:50:47.715Z,93.78
2022-10-15T04:51:51.564Z,93.64
2022-10-15T04:52:54.054Z,93.65
2022-10-15T04:53:55.716Z,93.62
2022-10-15T04:54:58.852Z,93.58
2022-10-15T04:56:02.053Z,93.72
2022-10-15T04:57:04.953Z,93.57
2022-10-15T04:58:06.449Z,93.51
2022-10-15T04:59:09.632Z,93.32
2022-10-15T05:00:12.574Z,93.43
2022-10-15T05:01:19.713Z,93.50
2022-10-15T05:02:21.324Z,93.16
2022-10-15T05:03:23.912Z,93.23
2022-10-15T05:04:25.635Z,93.11
2022-10-15T05:05:28.096Z,93.34
2022-10-15T05:06:29.725Z,93.40
2022-10-15T05:07:33.532Z,93.17
2022-10-15T05:08:36.065Z,93.17
2022-10-15T05:09:40.743Z,93.17
2022-10-15T05:10:44.312Z,93.15
2022-10-15T05:11:46.859Z,93.20
2022-10-15T05:12:50.329Z,93.07
2022-10-15T05:13:56.633Z,92.97
2022-10-15T05:14:58.171Z,93.19
2022-10-15T05:16:10.349Z,92.95
2022-10-15T05:17:11.853Z,93.23
2022-10-15T05:18:14.329Z,93.06
2022-10-15T05:19:16.816Z,93.26
2022-10-15T05:20:19.286Z,93.25
2022-10-15T05:21:20.899Z,92.87
2022-10-15T05:22:23.647Z,93.22
2022-10-15T05:23:26.982Z,93.30
2022-10-15T05:24:29.469Z,93.26
2022-10-15T05:25:31.289Z,93.26
2022-10-15T05:26:33.795Z,93.27
2022-10-15T05:27:35.311Z,93.40
2022-10-15T05:28:38.311Z,93.16
2022-10-15T05:29:39.951Z,93.18
2022-10-15T05:30:42.438Z,93.49
2022-10-15T05:31:44.897Z,93.22
2022-10-15T05:32:46.569Z,93.28
2022-10-15T05:33:49.739Z,93.29
2022-10-15T05:34:52.269Z,93.44
2022-10-15T05:35:53.785Z,93.41
2022-10-15T05:36:56.283Z,93.18
2022-10-15T05:37:57.814Z,93.11
2022-10-15T05:39:03.064Z,93.39
2022-10-15T05:40:05.705Z,93.16
2022-10-15T05:41:08.560Z,93.20
2022-10-15T05:42:10.150Z,93.39
2022-10-15T05:43:12.638Z,93.16
2022-10-15T05:44:14.201Z,93.13
2022-10-15T05:45:16.674Z,93.25
2022-10-15T05:46:19.177Z,93.41
2022-10-15T05:47:21.985Z,93.25
2022-10-15T05:48:24.407Z,93.05
2022-10-15T05:49:26.884Z,93.30
2022-10-15T05:50:28.401Z,93.26
2022-10-15T05:51:30.938Z,93.24
2022-10-15T05:52:32.569Z,93.40
2022-10-15T05:53:35.186Z,93.22
2022-10-15T05:54:38.021Z,93.28
2022-10-15T05:55:40.647Z,93.15
2022-10-15T05:56:42.196Z,93.35
2022-10-15T05:57:44.765Z,93.39
2022-10-15T05:58:46.338Z,93.30
2022-10-15T05:59:48.866Z,93.15
2022-10-15T06:00:54.098Z,93.05
2022-10-15T06:01:57.147Z,93.03
2022-10-15T06:02:59.033Z,93.13
2022-10-15T06:04:01.775Z,93.14
2022-10-15T06:05:04.861Z,93.12
2022-10-15T06:06:15.446Z,93.13
2022-10-15T06:07:17.204Z,93.22
2022-10-15T06:08:20.211Z,93.01
2022-10-15T06:09:22.871Z,92.81
2022-10-15T06:10:28.350Z,93.05
2022-10-15T06:11:31.757Z,92.95
2022-10-15T06:12:33.414Z,92.78
2022-10-15T06:13:36.038Z,92.79
2022-10-15T06:14:37.680Z,92.87
2022-10-15T06:15:41.510Z,92.81
2022-10-15T06:16:43.046Z,92.65
2022-10-15T06:17:45.562Z,92.75
2022-10-15T06:18:47.162Z,92.67
2022-10-15T06:19:49.664Z,92.65
2022-10-15T06:20:52.089Z,92.72
2022-10-15T06:21:54.616Z,92.41
2022-10-15T06:22:59.707Z,92.55
2022-10-15T06:24:04.128Z,92.55
2022-10-15T06:25:08.954Z,92.44
2022-10-15T06:26:12.857Z,92.53
2022-10-15T06:27:14.416Z,92.54
2022-10-15T06:28:17.219Z,92.19
2022-10-15T06:29:18.904Z,92.33
2022-10-15T06:30:22.183Z,92.40
2022-10-15T06:31:23.915Z,92.32
2022-10-15T06:32:26.552Z,92.25
2022-10-15T06:33:29.022Z,92.53
2022-10-15T06:34:31.494Z,92.52
2022-10-15T06:35:35.133Z,92.23
2022-10-15T06:36:38.968Z,92.15
2022-10-15T06:37:40.473Z,92.46
2022-10-15T06:38:44.558Z,92.21
2022-10-15T06:39:46.650Z,92.33
2022-10-15T06:40:49.664Z,92.39
2022-10-15T06:41:53.782Z,92.43
2022-10-15T06:42:56.347Z,92.33
2022-10-15T06:43:57.870Z,92.65
2022-10-15T06:45:00.361Z,92.49
2022-10-15T06:46:03.976Z,92.57
2022-10-15T06:47:06.547Z,92.77
2022-10-15T06:48:08.869Z,92.69
2022-10-15T06:49:11.788Z,92.88
2022-10-15T06:50:13.394Z,92.74
2022-10-15T06:51:16.209Z,92.93
2022-10-15T06:52:17.746Z,92.96
2022-10-15T06:53:20.325Z,92.95
2022-10-15T06:54:21.933Z,92.87
2022-10-15T06:55:24.448Z,92.61
2022-10-15T06:56:26.994Z,92.78
2022-10-15T06:57:30.624Z,92.65
2022-10-15T06:58:33.201Z,92.78
2022-10-15T06:59:38.514Z,92.52
2022-10-15T07:00:43.928Z,92.68
2022-10-15T07:01:45.721Z,92.64
2022-10-15T07:02:48.385Z,92.64
2022-10-15T07:03:50.114Z,92.79
2022-10-15T07:04:52.608Z,92.65
2022-10-15T07:05:54.104Z,93.01
2022-10-15T07:06:56.786Z,92.79
2022-10-15T07:07:58.748Z,92.55
2022-10-15T07:09:02.793Z,92.76
2022-10-15T07:10:05.164Z,92.91
2022-10-15T07:11:09.685Z,92.88
2022-10-15T07:12:11.194Z,92.67
2022-10-15T07:13:15.184Z,92.71
2022-10-15T07:14:16.883Z,93.01
2022-10-15T07:15:20.620Z,92.93
2022-10-15T07:16:22.245Z,92.78
2022-10-15T07:17:24.759Z,92.90
2022-10-15T07:18:26.308Z,92.90
2022-10-15T07:19:29.309Z,92.79
2022-10-15T07:20:32.053Z,92.78
2022-10-15T07:21:34.609Z,93.01
2022-10-15T07:22:37.202Z,92.69
2022-10-15T07:23:39.674Z,92.72
2022-10-15T07:24:41.190Z,92.67
2022-10-15T07:25:43.737Z,92.79
2022-10-15T07:26:47.009Z,92.81
2022-10-15T07:27:49.539Z,92.69
2022-10-15T07:28:53.475Z,92.67
2022-10-15T07:29:55.088Z,92.81
2022-10-15T07:31:02.351Z,92.83
2022-10-15T07:32:04.045Z,92.66
2022-10-15T07:33:07.320Z,92.78
2022-10-15T07:34:09.063Z,92.76
2022-10-15T07:35:11.633Z,92.58
2022-10-15T07:36:14.145Z,92.72
2022-10-15T07:37:15.688Z,92.80
2022-10-15T07:38:18.244Z,92.71
2022-10-15T07:39:19.855Z,92.94
2022-10-15T07:40:22.650Z,92.88
2022-10-15T07:41:24.328Z,92.84
2022-10-15T07:42:26.944Z,92.91
2022-10-15T07:43:28.733Z,92.70
2022-10-15T07:44:32.638Z,92.77
2022-10-15T07:45:35.509Z,92.80
2022-10-15T07:46:38.107Z,92.94
2022-10-15T07:47:40.185Z,92.59
2022-10-15T07:48:42.740Z,92.64
2022-10-15T07:49:44.622Z,92.65
2022-10-15T07:50:47.177Z,92.71
2022-10-15T07:51:48.730Z,92.55
2022-10-15T07:52:51.223Z,92.57
2022-10-15T07:53:52.778Z,92.44
2022-10-15T07:54:55.327Z,92.40
2022-10-15T07:55:59.779Z,92.25
2022-10-15T07:57:02.284Z,92.30
2022-10-15T07:58:08.105Z,92.20
2022-10-15T07:59:10.593Z,92.00
2022-10-15T08:00:14.049Z,91.99
2022-10-15T08:01:20.360Z,91.93
2022-10-15T08:02:22.693Z,91.79
2022-10-15T08:03:25.460Z,91.93
2022-10-15T08:04:27.183Z,91.50
2022-10-15T08:05:29.667Z,91.49
2022-10-15T08:06:32.773Z,91.41
2022-10-15T08:07:34.461Z,91.53
2022-10-15T08:08:38.159Z,91.41
2022-10-15T08:09:40.767Z,91.48
2022-10-15T08:10:42.323Z,91.29
2022-10-15T08:11:44.978Z,91.39
2022-10-15T08:12:46.588Z,91.34
2022-10-15T08:13:49.436Z,91.39
2022-10-15T08:14:51.008Z,91.33
2022-10-15T08:15:57.643Z,91.22
2022-10-15T08:17:03.641Z,91.30
2022-10-15T08:18:05.236Z,91.26
2022-10-15T08:19:07.769Z,91.24
2022-10-15T08:20:10.251Z,91.33
2022-10-15T08:21:12.876Z,91.26
2022-10-15T08:22:14.477Z,91.07
2022-10-15T08:23:17.925Z,91.14
2022-10-15T08:24:20.629Z,91.17
2022-10-15T08:25:23.178Z,91.12
2022-10-15T08:26:26.447Z,90.81
2022-10-15T08:27:28.943Z,90.83
2022-10-15T08:28:32.168Z,90.70
2022-10-15T08:29:34.705Z,90.68
2022-10-15T08:30:36.371Z,90.38
2022-10-15T08:31:40.364Z,90.35
2022-10-15T08:32:41.915Z,90.24
2022-10-15T08:33:45.971Z,90.19
2022-10-15T08:34:47.572Z,90.06
2022-10-15T08:35:50.082Z,89.91
2022-10-15T08:36:52.038Z,89.94
2022-10-15T08:37:54.803Z,89.79
2022-10-15T08:38:57.386Z,89.75
2022-10-15T08:39:58.929Z,89.63
2022-10-15T08:41:03.577Z,89.35
2022-10-15T08:42:13.113Z,89.31
2022-10-15T08:43:23.389Z,89.23
2022-10-15T08:44:31.973Z,89.09
2022-10-15T08:45:42.171Z,89.15
2022-10-15T08:46:51.131Z,89.06
2022-10-15T08:47:58.270Z,88.98
2022-10-15T08:49:02.681Z,88.80
2022-10-15T08:50:12.361Z,88.77
2022-10-15T08:51:18.218Z,88.62
2022-10-15T08:52:25.521Z,88.54
2022-10-15T08:53:29.444Z,88.59
2022-10-15T08:54:33.542Z,88.60
2022-10-15T08:55:40.055Z,88.50
2022-10-15T08:56:45.634Z,88.20
2022-10-15T08:57:54.018Z,88.43
2022-10-15T08:59:06.022Z,88.30
2022-10-15T09:00:14.010Z,88.27
2022-10-15T09:01:25.171Z,88.12
2022-10-15T09:02:34.248Z,88.00
2022-10-15T09:03:40.516Z,88.11
2022-10-15T09:04:52.989Z,88.11
2022-10-15T09:06:04.056Z,87.96
2022-10-15T09:07:13.029Z,88.03
2022-10-15T09:08:26.728Z,87.98
2022-10-15T09:09:35.757Z,87.97
2022-10-15T09:10:43.397Z,88.00
2022-10-15T09:11:57.776Z,87.93
2022-10-15T09:13:04.451Z,87.62
2022-10-15T09:14:12.669Z,87.42
2022-10-15T09:15:16.931Z,87.26
2022-10-15T09:16:23.281Z,87.60
2022-10-15T09:17:27.950Z,87.17
2022-10-15T09:18:34.553Z,86.96
2022-10-15T09:19:37.859Z,86.91
2022-10-15T09:20:40.553Z,86.83
2022-10-15T09:21:42.742Z,86.80
2022-10-15T09:23:52.915Z,86.48
2022-10-15T09:24:55.178Z,86.42
2022-10-15T09:26:06.206Z,86.33
2022-10-15T09:27:12.636Z,86.05
2022-10-15T09:28:20.521Z,86.05
2022-10-15T09:29:30.740Z,85.81
2022-10-15T09:30:38.734Z,85.76
2022-10-15T09:31:50.496Z,85.54
2022-10-15T09:32:59.121Z,85.70
2022-10-15T09:34:10.398Z,85.59
2022-10-15T09:35:20.395Z,85.54
2022-10-15T09:36:35.233Z,84.90
2022-10-15T09:37:49.970Z,85.35
2022-10-15T09:39:04.189Z,85.17
2022-10-15T09:40:34.425Z,85.20
2022-10-15T09:41:48.952Z,85.13
2022-10-15T09:42:52.504Z,85.33
2022-10-15T09:43:58.244Z,85.18
2022-10-15T09:45:03.979Z,85.24
2022-10-15T09:46:06.981Z,85.07
2022-10-15T09:47:23.847Z,84.99
2022-10-15T09:48:28.943Z,85.14
2022-10-15T09:49:36.247Z,85.04
2022-10-15T09:50:44.753Z,84.97
2022-10-15T09:51:57.121Z,84.78
2022-10-15T09:53:13.653Z,84.54
2022-10-15T09:54:23.023Z,84.60
2022-10-15T09:55:35.917Z,84.33
2022-10-15T09:56:42.355Z,84.26
2022-10-15T09:57:49.616Z,84.31
2022-10-15T09:58:54.716Z,84.38
2022-10-15T10:00:01.050Z,84.13
2022-10-15T10:01:08.999Z,84.11
2022-10-15T10:02:19.974Z,84.28
2022-10-15T10:03:24.681Z,84.01
2022-10-15T10:04:29.212Z,84.21
2022-10-15T10:05:36.363Z,84.12
2022-10-15T10:06:45.047Z,83.97
2022-10-15T10:07:47.744Z,83.98
2022-10-15T10:08:55.608Z,84.03
2022-10-15T10:10:00.956Z,84.24
2022-10-15T10:11:04.655Z,84.05
2022-10-15T10:12:09.519Z,84.27
2022-10-15T10:13:23.739Z,84.28
2022-10-15T10:14:30.472Z,84.20
2022-10-15T10:15:34.356Z,84.14
2022-10-15T10:16:59.411Z,84.06
2022-10-15T10:18:02.542Z,84.27
2022-10-15T10:19:12.300Z,84.14
2022-10-15T10:20:20.423Z,84.05
2022-10-15T10:21:28.557Z,84.50
2022-10-15T10:22:31.837Z,84.67
2022-10-15T10:23:35.698Z,84.53
2022-10-15T10:24:38.205Z,84.45
2022-10-15T10:25:42.355Z,84.51
2022-10-15T10:26:45.571Z,84.59
2022-10-15T10:27:47.211Z,84.78
2022-10-15T10:28:56.979Z,84.93
2022-10-15T10:30:07.724Z,85.03
2022-10-15T10:31:11.658Z,85.03
2022-10-15T10:32:19.903Z,85.29
2022-10-15T10:33:27.369Z,85.49
2022-10-15T10:34:31.745Z,85.56
2022-10-15T10:35:46.076Z,85.80
2022-10-15T10:36:53.566Z,85.80
2022-10-15T10:37:55.151Z,86.19
2022-10-15T10:39:02.641Z,85.99
2022-10-15T10:40:19.027Z,86.17
2022-10-15T10:41:21.115Z,86.20
2022-10-15T10:42:32.962Z,86.34
2022-10-15T10:43:39.109Z,86.35
2022-10-15T10:44:46.420Z,86.31
2022-10-15T10:45:56.023Z,86.72
2022-10-15T10:47:15.294Z,86.55
2022-10-15T10:48:19.874Z,86.82
2022-10-15T10:49:32.088Z,86.96
2022-10-15T10:50:40.478Z,87.05
2022-10-15T10:51:51.124Z,87.10
2022-10-15T10:52:53.467Z,87.10
2022-10-15T10:53:59.091Z,87.19
2022-10-15T10:55:02.820Z,87.33
2022-10-15T10:56:10.411Z,87.50
2022-10-15T10:57:15.749Z,87.49
2022-10-15T10:58:24.833Z,87.29
2022-10-15T10:59:33.702Z,87.56
2022-10-15T11:00:40.120Z,87.43
2022-10-15T11:01:42.963Z,87.39
2022-10-15T11:02:44.961Z,87.75
2022-10-15T11:03:48.439Z,87.41
2022-10-15T11:04:49.967Z,87.44
2022-10-15T11:06:02.632Z,87.83
2022-10-15T11:07:09.327Z,87.76
2022-10-15T11:08:19.336Z,87.53
2022-10-15T11:09:43.533Z,87.63
2022-10-15T11:10:52.843Z,87.67
2022-10-15T11:12:11.504Z,87.55
2022-10-15T11:13:31.564Z,87.65
2022-10-15T11:14:46.875Z,87.87
2022-10-15T11:15:57.974Z,87.72
2022-10-15T11:17:07.632Z,87.71
2022-10-15T11:18:28.828Z,87.70
2022-10-15T11:20:05.970Z,87.79
2022-10-15T11:21:08.396Z,87.72
2022-10-15T11:22:32.346Z,87.73
2022-10-15T11:23:56.107Z,88.01
2022-10-15T11:25:07.308Z,88.00
2022-10-15T11:26:27.748Z,88.01
2022-10-15T11:27:46.229Z,88.05
2022-10-15T11:28:59.449Z,87.89
2022-10-15T11:30:07.137Z,87.95
2022-10-15T11:31:15.514Z,88.24
2022-10-15T11:32:42.438Z,88.12
2022-10-15T11:34:06.791Z,88.53
2022-10-15T11:35:51.630Z,88.33
2022-10-15T11:37:02.309Z,88.49
2022-10-15T11:38:18.674Z,88.68
2022-10-15T11:39:41.021Z,88.67
2022-10-15T11:40:57.972Z,88.79
2022-10-15T11:42:08.571Z,89.02
2022-10-15T11:43:19.965Z,88.61
2022-10-15T11:44:32.598Z,88.65
2022-10-15T11:45:50.614Z,89.03
2022-10-15T11:47:08.390Z,88.84
2022-10-15T11:48:17.250Z,89.22
2022-10-15T11:50:44.906Z,89.41
2022-10-15T11:52:04.357Z,89.43
2022-10-15T11:53:30.815Z,89.38
2022-10-15T11:54:38.048Z,89.44
2022-10-15T11:55:43.455Z,89.64
2022-10-15T11:56:48.542Z,89.50
2022-10-15T11:57:54.805Z,89.05
2022-10-15T11:59:00.835Z,89.03
2022-10-15T12:00:15.307Z,89.11
2022-10-15T12:01:24.037Z,89.31
2022-10-15T12:02:32.932Z,88.92
2022-10-15T12:03:41.944Z,89.10
2022-10-15T12:04:49.393Z,88.95
2022-10-15T12:05:54.490Z,88.98
2022-10-15T12:06:59.699Z,89.03
2022-10-15T12:09:13.039Z,89.29
2022-10-15T12:10:31.827Z,88.84
2022-10-15T12:11:45.201Z,89.46
2022-10-15T12:12:56.987Z,89.46
2022-10-15T12:14:05.460Z,89.31
2022-10-15T12:15:25.309Z,89.29
2022-10-15T12:16:35.437Z,89.28
2022-10-15T12:17:47.984Z,88.92
2022-10-15T12:18:55.156Z,89.03
2022-10-15T12:20:02.978Z,89.29
2022-10-15T12:21:24.550Z,89.46
2022-10-15T12:22:37.674Z,89.41
2022-10-15T12:23:42.194Z,89.43
2022-10-15T12:24:54.582Z,89.09
2022-10-15T12:25:56.164Z,89.12
2022-10-15T12:27:16.646Z,89.27
2022-10-15T12:28:24.942Z,89.08
2022-10-15T12:29:27.581Z,89.18
2022-10-15T12:30:34.658Z,89.21
2022-10-15T12:31:49.784Z,89.27
2022-10-15T12:32:52.950Z,89.31
2022-10-15T12:33:57.342Z,89.14
2022-10-15T12:35:00.817Z,88.98
2022-10-15T12:36:09.288Z,89.45
2022-10-15T12:37:17.460Z,88.78
2022-10-15T12:38:25.711Z,88.83
2022-10-15T12:39:51.217Z,89.14
2022-10-15T12:40:59.844Z,88.74
2022-10-15T12:42:02.061Z,88.86
2022-10-15T12:43:13.031Z,89.16
2022-10-15T12:44:21.745Z,88.68
2022-10-15T12:45:27.354Z,88.63
2022-10-15T12:46:37.630Z,88.27
2022-10-15T12:47:50.207Z,88.00
2022-10-15T12:48:56.022Z,87.73
2022-10-15T12:50:03.799Z,87.92
2022-10-15T12:51:40.050Z,87.61
2022-10-15T12:52:59.597Z,87.85
2022-10-15T12:54:03.081Z,87.36
2022-10-15T12:55:26.664Z,87.06
2022-10-15T12:56:41.739Z,86.86
2022-10-15T12:57:55.044Z,86.94
2022-10-15T12:58:57.643Z,86.66
2022-10-15T13:00:00.549Z,86.42
2022-10-15T13:01:08.656Z,86.25
2022-10-15T13:02:35.128Z,85.80
2022-10-15T13:03:40.475Z,85.94
2022-10-15T13:04:43.104Z,85.46
2022-10-15T13:05:47.903Z,85.34
2022-10-15T13:06:53.948Z,85.31
2022-10-15T13:07:57.598Z,85.45
2022-10-15T13:09:07.740Z,84.63
2022-10-15T13:10:21.534Z,84.77
2022-10-15T13:11:27.875Z,84.97
2022-10-15T13:12:32.862Z,84.36
2022-10-15T13:13:35.527Z,84.30
2022-10-15T13:14:42.598Z,84.19
2022-10-15T13:15:54.492Z,84.13
2022-10-15T13:17:01.887Z,83.82
2022-10-15T13:18:08.679Z,84.14
2022-10-15T13:19:18.990Z,83.60
2022-10-15T13:20:41.812Z,83.81
2022-10-15T13:21:53.845Z,83.58
2022-10-15T13:23:18.843Z,83.73
2022-10-15T13:24:39.569Z,83.54
2022-10-15T13:25:41.142Z,83.89
2022-10-15T13:26:43.956Z,84.05
2022-10-15T13:27:46.881Z,83.91
2022-10-15T13:28:50.668Z,83.98
2022-10-15T13:29:57.740Z,83.45
2022-10-15T13:31:00.865Z,83.21
2022-10-15T13:32:03.461Z,83.82
2022-10-15T13:33:05.123Z,82.99
2022-10-15T13:34:14.127Z,83.15
2022-10-15T13:35:19.827Z,83.13
2022-10-15T13:36:24.893Z,83.07
2022-10-15T13:37:32.572Z,83.33
2022-10-15T13:38:37.095Z,82.95
2022-10-15T13:39:41.748Z,82.63
2022-10-15T13:40:47.499Z,82.93
2022-10-15T13:41:50.669Z,83.03
2022-10-15T13:43:00.784Z,82.76
2022-10-15T13:44:04.354Z,82.71
2022-10-15T13:45:19.130Z,82.74
2022-10-15T13:46:23.774Z,83.07
2022-10-15T13:47:29.738Z,83.01
2022-10-15T13:48:32.784Z,83.12
2022-10-15T13:49:36.444Z,83.16
2022-10-15T13:50:39.698Z,82.98
2022-10-15T13:51:45.057Z,83.00
2022-10-15T13:52:49.913Z,82.85
2022-10-15T13:53:52.540Z,83.01
2022-10-15T13:54:54.133Z,82.84
2022-10-15T13:55:58.720Z,83.12
2022-10-15T13:57:02.416Z,83.47
2022-10-15T13:58:15.840Z,82.86
2022-10-15T13:59:20.052Z,83.15
2022-10-15T14:00:25.626Z,83.38
2022-10-15T14:01:29.683Z,82.97
2022-10-15T14:02:31.425Z,83.15
2022-10-15T14:03:35.763Z,83.01
2022-10-15T14:04:37.511Z,82.76
2022-10-15T14:05:40.316Z,83.03
2022-10-15T14:06:43.902Z,82.90
2022-10-15T14:07:54.425Z,83.12
2022-10-15T14:08:58.558Z,82.94
2022-10-15T14:10:00.093Z,83.30
2022-10-15T14:11:02.912Z,83.07
2022-10-15T14:12:05.938Z,83.06